KQA509 DGAA-HKJK
Flight info
| Callsign | KQA509 |
|---|---|
| Flight time | 5h 15m |
| Altitude | 33000 |
| Route | EREK1D EREKA DCT ENEVO UP685 DLA UR984 NLY UL434 AMPIL/N0458F350 UL434 NN UL433 NAKAT NAKA4A |
| Aircraft | B738/M-V/N |
Departure
| Time | 2026-04-21 07:38 |
|---|---|
| Airport | Kotoka International Airport (DGAA) |
Arrival
| Time | 2026-04-21 12:54 |
|---|---|
| Airport | Jomo Kenyatta International Airport (HKJK) |
| Time | Latitude | Longitude | Altitude | Speed | Heading |
|---|---|---|---|---|---|
| 2026-04-21 06:59 | 5.60044 | -0.17244 | 211 ft | 0 kts | 292° |
| 2026-04-21 07:26 | 5.60037 | -0.17229 | 215 ft | 4 kts | 294° |
| 2026-04-21 07:26 | 5.60025 | -0.17205 | 217 ft | 4 kts | 299° |
| 2026-04-21 07:26 | 5.60011 | -0.17182 | 208 ft | 4 kts | 307° |
| 2026-04-21 07:27 | 5.59993 | -0.17163 | 207 ft | 4 kts | 329° |
| 2026-04-21 07:27 | 5.59973 | -0.17157 | 209 ft | 2 kts | 22° |
| 2026-04-21 07:27 | 5.59968 | -0.17159 | 206 ft | 1 kts | 22° |
| 2026-04-21 07:30 | 5.59971 | -0.17158 | 208 ft | 2 kts | 22° |
| 2026-04-21 07:30 | 5.60002 | -0.17145 | 215 ft | 7 kts | 22° |
| 2026-04-21 07:31 | 5.60049 | -0.17125 | 208 ft | 8 kts | 22° |
| 2026-04-21 07:31 | 5.60105 | -0.17103 | 214 ft | 9 kts | 21° |
| 2026-04-21 07:31 | 5.60160 | -0.17080 | 210 ft | 8 kts | 22° |
| 2026-04-21 07:31 | 5.60214 | -0.17058 | 216 ft | 9 kts | 22° |
| 2026-04-21 07:32 | 5.60279 | -0.17031 | 216 ft | 11 kts | 22° |
| 2026-04-21 07:32 | 5.60347 | -0.17002 | 219 ft | 10 kts | 22° |
| 2026-04-21 07:32 | 5.60413 | -0.16975 | 215 ft | 10 kts | 22° |
| 2026-04-21 07:32 | 5.60478 | -0.16948 | 217 ft | 10 kts | 22° |
| 2026-04-21 07:33 | 5.60546 | -0.16920 | 218 ft | 13 kts | 22° |
| 2026-04-21 07:33 | 5.60634 | -0.16884 | 222 ft | 15 kts | 22° |
| 2026-04-21 07:33 | 5.60741 | -0.16840 | 221 ft | 18 kts | 22° |
| 2026-04-21 07:33 | 5.60863 | -0.16790 | 221 ft | 19 kts | 22° |
| 2026-04-21 07:34 | 5.60981 | -0.16740 | 222 ft | 18 kts | 22° |
| 2026-04-21 07:34 | 5.61097 | -0.16693 | 220 ft | 18 kts | 22° |
| 2026-04-21 07:34 | 5.61207 | -0.16647 | 219 ft | 17 kts | 22° |
| 2026-04-21 07:34 | 5.61314 | -0.16603 | 218 ft | 16 kts | 22° |
| 2026-04-21 07:35 | 5.61417 | -0.16560 | 216 ft | 16 kts | 22° |
| 2026-04-21 07:35 | 5.61516 | -0.16520 | 215 ft | 15 kts | 22° |
| 2026-04-21 07:35 | 5.61606 | -0.16473 | 213 ft | 14 kts | 49° |
| 2026-04-21 07:35 | 5.61609 | -0.16384 | 218 ft | 13 kts | 108° |
| 2026-04-21 07:36 | 5.61603 | -0.16300 | 212 ft | 12 kts | 62° |
| 2026-04-21 07:36 | 5.61676 | -0.16247 | 208 ft | 14 kts | 22° |
| 2026-04-21 07:36 | 5.61766 | -0.16212 | 206 ft | 10 kts | 18° |
| 2026-04-21 07:36 | 5.61846 | -0.16216 | 201 ft | 13 kts | 346° |
| 2026-04-21 07:37 | 5.61889 | -0.16182 | 189 ft | 7 kts | 122° |
| 2026-04-21 07:37 | 5.61844 | -0.16179 | 192 ft | 5 kts | 198° |
| 2026-04-21 07:37 | 5.61811 | -0.16192 | 203 ft | 5 kts | 202° |
| 2026-04-21 07:37 | 5.61730 | -0.16225 | 206 ft | 35 kts | 202° |
| 2026-04-21 07:38 | 5.61299 | -0.16403 | 221 ft | 98 kts | 202° |
| 2026-04-21 07:38 | 5.60483 | -0.16741 | 220 ft | 154 kts | 203° |
| 2026-04-21 07:38 | 5.59387 | -0.17220 | 488 ft | 178 kts | 204° |
| 2026-04-21 07:38 | 5.58220 | -0.17700 | 1130 ft | 185 kts | 202° |
| 2026-04-21 07:39 | 5.57008 | -0.18094 | 1929 ft | 183 kts | 186° |
| 2026-04-21 07:39 | 5.55711 | -0.17891 | 2398 ft | 201 kts | 163° |
| 2026-04-21 07:39 | 5.54477 | -0.17088 | 2564 ft | 226 kts | 131° |
| 2026-04-21 07:39 | 5.53824 | -0.15593 | 2812 ft | 245 kts | 100° |
| 2026-04-21 07:40 | 5.53719 | -0.13846 | 3142 ft | 262 kts | 85° |
| 2026-04-21 07:40 | 5.54324 | -0.12090 | 3642 ft | 270 kts | 65° |
| 2026-04-21 07:40 | 5.55167 | -0.10442 | 4607 ft | 261 kts | 64° |
| 2026-04-21 07:40 | 5.56007 | -0.08825 | 5347 ft | 261 kts | 64° |
| 2026-04-21 07:41 | 5.56841 | -0.07208 | 6124 ft | 259 kts | 64° |
| 2026-04-21 07:41 | 5.57658 | -0.05603 | 6849 ft | 258 kts | 65° |
| 2026-04-21 07:41 | 5.58472 | -0.03985 | 7476 ft | 261 kts | 65° |
| 2026-04-21 07:41 | 5.59284 | -0.02359 | 8155 ft | 261 kts | 65° |
| 2026-04-21 07:42 | 5.60093 | -0.00729 | 8837 ft | 262 kts | 65° |
| 2026-04-21 07:42 | 5.60892 | 0.00889 | 9514 ft | 262 kts | 65° |
| 2026-04-21 07:42 | 5.61701 | 0.02532 | 10105 ft | 266 kts | 65° |
| 2026-04-21 07:42 | 5.62550 | 0.04263 | 10251 ft | 287 kts | 65° |
| 2026-04-21 07:43 | 5.63458 | 0.06118 | 10394 ft | 306 kts | 65° |
| 2026-04-21 07:43 | 5.64420 | 0.08087 | 10592 ft | 321 kts | 65° |
| 2026-04-21 07:43 | 5.65373 | 0.10136 | 10998 ft | 327 kts | 72° |
| 2026-04-21 07:43 | 5.65729 | 0.12386 | 11505 ft | 329 kts | 90° |
| 2026-04-21 07:44 | 5.65421 | 0.14672 | 12030 ft | 334 kts | 103° |
| 2026-04-21 07:44 | 5.64771 | 0.16927 | 12509 ft | 339 kts | 106° |
| 2026-04-21 07:44 | 5.64046 | 0.19196 | 13004 ft | 343 kts | 107° |
| 2026-04-21 07:44 | 5.63298 | 0.21482 | 13512 ft | 347 kts | 107° |
| 2026-04-21 07:45 | 5.62544 | 0.23797 | 13973 ft | 350 kts | 107° |
| 2026-04-21 07:45 | 5.61790 | 0.26135 | 14401 ft | 354 kts | 107° |
| 2026-04-21 07:45 | 5.61033 | 0.28504 | 14814 ft | 358 kts | 107° |
| 2026-04-21 07:45 | 5.60274 | 0.30902 | 15238 ft | 362 kts | 107° |
| 2026-04-21 07:46 | 5.59510 | 0.33324 | 15665 ft | 366 kts | 107° |
| 2026-04-21 07:46 | 5.58742 | 0.35769 | 16078 ft | 369 kts | 107° |
| 2026-04-21 07:46 | 5.57968 | 0.38238 | 16498 ft | 373 kts | 107° |
| 2026-04-21 07:46 | 5.57186 | 0.40736 | 16935 ft | 376 kts | 107° |
| 2026-04-21 07:47 | 5.56399 | 0.43246 | 17365 ft | 378 kts | 107° |
| 2026-04-21 07:47 | 5.55607 | 0.45777 | 17745 ft | 382 kts | 107° |
| 2026-04-21 07:47 | 5.54806 | 0.48334 | 18136 ft | 385 kts | 108° |
| 2026-04-21 07:47 | 5.54002 | 0.50904 | 18554 ft | 386 kts | 107° |
| 2026-04-21 07:48 | 5.53196 | 0.53478 | 18925 ft | 388 kts | 107° |
| 2026-04-21 07:48 | 5.52383 | 0.56073 | 19243 ft | 391 kts | 107° |
| 2026-04-21 07:48 | 5.51566 | 0.58680 | 19604 ft | 393 kts | 107° |
| 2026-04-21 07:48 | 5.50745 | 0.61301 | 19966 ft | 394 kts | 107° |
| 2026-04-21 07:49 | 5.49920 | 0.63936 | 20312 ft | 396 kts | 107° |
| 2026-04-21 07:49 | 5.49091 | 0.66581 | 20641 ft | 399 kts | 107° |
| 2026-04-21 07:49 | 5.48256 | 0.69244 | 20993 ft | 400 kts | 107° |
| 2026-04-21 07:49 | 5.47421 | 0.71906 | 21384 ft | 401 kts | 107° |
| 2026-04-21 07:50 | 5.46582 | 0.74584 | 21670 ft | 404 kts | 107° |
| 2026-04-21 07:50 | 5.46020 | 0.76375 | 21865 ft | 406 kts | 107° |
| 2026-04-21 07:50 | 5.45172 | 0.79078 | 22193 ft | 407 kts | 107° |
| 2026-04-21 07:50 | 5.44320 | 0.81795 | 22515 ft | 409 kts | 107° |
| 2026-04-21 07:51 | 5.43465 | 0.84521 | 22831 ft | 411 kts | 107° |
| 2026-04-21 07:51 | 5.42603 | 0.87266 | 23116 ft | 413 kts | 107° |
| 2026-04-21 07:51 | 5.41738 | 0.90023 | 23394 ft | 415 kts | 107° |
| 2026-04-21 07:51 | 5.40869 | 0.92792 | 23632 ft | 417 kts | 107° |
| 2026-04-21 07:52 | 5.39995 | 0.95574 | 23858 ft | 419 kts | 107° |
| 2026-04-21 07:52 | 5.39118 | 0.98367 | 24090 ft | 421 kts | 107° |
| 2026-04-21 07:52 | 5.38237 | 1.01173 | 24309 ft | 423 kts | 107° |
| 2026-04-21 07:52 | 5.37351 | 1.03993 | 24517 ft | 425 kts | 107° |
| 2026-04-21 07:53 | 5.36460 | 1.06828 | 24756 ft | 426 kts | 107° |
| 2026-04-21 07:53 | 5.35579 | 1.09632 | 24977 ft | 428 kts | 107° |
| 2026-04-21 07:53 | 5.34682 | 1.12487 | 25153 ft | 431 kts | 107° |
| 2026-04-21 07:53 | 5.33778 | 1.15363 | 25357 ft | 433 kts | 107° |
| 2026-04-21 07:54 | 5.32871 | 1.18246 | 25572 ft | 435 kts | 107° |
| 2026-04-21 07:54 | 5.31947 | 1.21184 | 25767 ft | 436 kts | 107° |
| 2026-04-21 07:54 | 5.31044 | 1.24053 | 25980 ft | 438 kts | 107° |
| 2026-04-21 07:54 | 5.30114 | 1.27013 | 26166 ft | 440 kts | 107° |
| 2026-04-21 07:55 | 5.29202 | 1.29911 | 26350 ft | 442 kts | 107° |
| 2026-04-21 07:55 | 5.28264 | 1.32894 | 26547 ft | 444 kts | 106° |
| 2026-04-21 07:55 | 5.27343 | 1.35818 | 26714 ft | 446 kts | 107° |
| 2026-04-21 07:55 | 5.26408 | 1.38788 | 26914 ft | 448 kts | 107° |
| 2026-04-21 07:56 | 5.25470 | 1.41767 | 27099 ft | 449 kts | 106° |
| 2026-04-21 07:56 | 5.24525 | 1.44768 | 27272 ft | 451 kts | 107° |
| 2026-04-21 07:56 | 5.23578 | 1.47775 | 27449 ft | 453 kts | 107° |
| 2026-04-21 07:56 | 5.22627 | 1.50796 | 27620 ft | 455 kts | 107° |
| 2026-04-21 07:57 | 5.21673 | 1.53825 | 27779 ft | 456 kts | 107° |
| 2026-04-21 07:57 | 5.20716 | 1.56862 | 27944 ft | 458 kts | 107° |
| 2026-04-21 07:57 | 5.19782 | 1.59923 | 28107 ft | 460 kts | 105° |
| 2026-04-21 07:57 | 5.18945 | 1.63021 | 28273 ft | 461 kts | 103° |
| 2026-04-21 07:58 | 5.18155 | 1.66146 | 28429 ft | 462 kts | 103° |
| 2026-04-21 07:58 | 5.17380 | 1.69278 | 28591 ft | 464 kts | 103° |
| 2026-04-21 07:58 | 5.16599 | 1.72425 | 28735 ft | 465 kts | 103° |
| 2026-04-21 07:58 | 5.15808 | 1.75575 | 28895 ft | 467 kts | 103° |
| 2026-04-21 07:59 | 5.15006 | 1.78733 | 29038 ft | 468 kts | 103° |
| 2026-04-21 07:59 | 5.14195 | 1.81904 | 29171 ft | 470 kts | 103° |
| 2026-04-21 07:59 | 5.13379 | 1.85081 | 29306 ft | 472 kts | 103° |
| 2026-04-21 07:59 | 5.12559 | 1.88268 | 29489 ft | 472 kts | 103° |
| 2026-04-21 08:00 | 5.11740 | 1.91453 | 29701 ft | 472 kts | 103° |
| 2026-04-21 08:00 | 5.10920 | 1.94638 | 29916 ft | 472 kts | 103° |
| 2026-04-21 08:00 | 5.10101 | 1.97823 | 30097 ft | 471 kts | 103° |
| 2026-04-21 08:00 | 5.09281 | 2.01009 | 30276 ft | 471 kts | 103° |
| 2026-04-21 08:01 | 5.08463 | 2.04189 | 30471 ft | 471 kts | 103° |
| 2026-04-21 08:01 | 5.07647 | 2.07363 | 30675 ft | 470 kts | 103° |
| 2026-04-21 08:01 | 5.06830 | 2.10543 | 30856 ft | 470 kts | 103° |
| 2026-04-21 08:02 | 5.05198 | 2.16884 | 31256 ft | 469 kts | 104° |
| 2026-04-21 08:02 | 5.04385 | 2.20043 | 31468 ft | 468 kts | 104° |
| 2026-04-21 08:02 | 5.03584 | 2.23160 | 31678 ft | 467 kts | 104° |
| 2026-04-21 08:02 | 5.02775 | 2.26308 | 31879 ft | 466 kts | 104° |
| 2026-04-21 08:03 | 5.01967 | 2.29456 | 32087 ft | 466 kts | 104° |
| 2026-04-21 08:03 | 5.01160 | 2.32597 | 32289 ft | 465 kts | 104° |
| 2026-04-21 08:03 | 5.00354 | 2.35739 | 32485 ft | 464 kts | 104° |
| 2026-04-21 08:03 | 4.99549 | 2.38871 | 32694 ft | 464 kts | 104° |
| 2026-04-21 08:04 | 4.98748 | 2.41990 | 32857 ft | 461 kts | 104° |
| 2026-04-21 08:04 | 4.97142 | 2.48237 | 32878 ft | 464 kts | 104° |
| 2026-04-21 08:05 | 4.95530 | 2.54509 | 32881 ft | 465 kts | 104° |
| 2026-04-21 08:05 | 4.93913 | 2.60796 | 32885 ft | 466 kts | 104° |
| 2026-04-21 08:06 | 4.92291 | 2.67102 | 32885 ft | 467 kts | 104° |
| 2026-04-21 08:06 | 4.90669 | 2.73405 | 32880 ft | 467 kts | 104° |
| 2026-04-21 08:07 | 4.89045 | 2.79710 | 32874 ft | 467 kts | 104° |
| 2026-04-21 08:07 | 4.87423 | 2.86004 | 32880 ft | 466 kts | 104° |
| 2026-04-21 08:08 | 4.85803 | 2.92288 | 32875 ft | 465 kts | 103° |
| 2026-04-21 08:08 | 4.84186 | 2.98564 | 32880 ft | 464 kts | 103° |
| 2026-04-21 08:09 | 4.82571 | 3.04827 | 32880 ft | 464 kts | 104° |
| 2026-04-21 08:09 | 4.80958 | 3.11085 | 32879 ft | 463 kts | 104° |
| 2026-04-21 08:10 | 4.79345 | 3.17339 | 32879 ft | 463 kts | 104° |
| 2026-04-21 08:10 | 4.77743 | 3.23544 | 32882 ft | 463 kts | 104° |
| 2026-04-21 08:11 | 4.76131 | 3.29788 | 32880 ft | 463 kts | 104° |
| 2026-04-21 08:11 | 4.74518 | 3.36033 | 32882 ft | 463 kts | 104° |
| 2026-04-21 08:12 | 4.72905 | 3.42276 | 32878 ft | 463 kts | 104° |
| 2026-04-21 08:12 | 4.71291 | 3.48520 | 32878 ft | 463 kts | 104° |
| 2026-04-21 08:13 | 4.69677 | 3.54763 | 32882 ft | 463 kts | 104° |
| 2026-04-21 08:13 | 4.68062 | 3.61006 | 32878 ft | 463 kts | 104° |
| 2026-04-21 08:14 | 4.66445 | 3.67254 | 32880 ft | 463 kts | 104° |
| 2026-04-21 08:14 | 4.64829 | 3.73494 | 32876 ft | 462 kts | 103° |
| 2026-04-21 08:15 | 4.63214 | 3.79729 | 32878 ft | 462 kts | 104° |
| 2026-04-21 08:15 | 4.61600 | 3.85959 | 32879 ft | 462 kts | 104° |
| 2026-04-21 08:16 | 4.59986 | 3.92188 | 32879 ft | 461 kts | 104° |
| 2026-04-21 08:16 | 4.58372 | 3.98410 | 32883 ft | 461 kts | 104° |
| 2026-04-21 08:17 | 4.56771 | 4.04586 | 32880 ft | 461 kts | 104° |
| 2026-04-21 08:17 | 4.55158 | 4.10801 | 32880 ft | 460 kts | 104° |
| 2026-04-21 08:18 | 4.53546 | 4.17009 | 32879 ft | 460 kts | 104° |
| 2026-04-21 08:18 | 4.51935 | 4.23214 | 32878 ft | 460 kts | 104° |
| 2026-04-21 08:19 | 4.50322 | 4.29425 | 32881 ft | 460 kts | 104° |
| 2026-04-21 08:19 | 4.48711 | 4.35624 | 32880 ft | 460 kts | 104° |
| 2026-04-21 08:20 | 4.47097 | 4.41835 | 32879 ft | 460 kts | 104° |
| 2026-04-21 08:20 | 4.45481 | 4.48049 | 32879 ft | 460 kts | 104° |
| 2026-04-21 08:21 | 4.43876 | 4.54261 | 32881 ft | 461 kts | 102° |
| 2026-04-21 08:21 | 4.43062 | 4.60613 | 32882 ft | 460 kts | 94° |
| 2026-04-21 08:22 | 4.42547 | 4.67003 | 32884 ft | 460 kts | 94° |
| 2026-04-21 08:22 | 4.42016 | 4.73397 | 32884 ft | 461 kts | 94° |
| 2026-04-21 08:23 | 4.41449 | 4.79801 | 32882 ft | 461 kts | 94° |
| 2026-04-21 08:23 | 4.40872 | 4.86159 | 32883 ft | 461 kts | 94° |
| 2026-04-21 08:24 | 4.40288 | 4.92567 | 32882 ft | 462 kts | 94° |
| 2026-04-21 08:24 | 4.39704 | 4.98976 | 32880 ft | 462 kts | 94° |
| 2026-04-21 08:25 | 4.39122 | 5.05377 | 32882 ft | 461 kts | 94° |
| 2026-04-21 08:25 | 4.38539 | 5.11777 | 32881 ft | 461 kts | 94° |
| 2026-04-21 08:26 | 4.37958 | 5.18162 | 32882 ft | 460 kts | 94° |
| 2026-04-21 08:26 | 4.37374 | 5.24559 | 32881 ft | 460 kts | 94° |
| 2026-04-21 08:27 | 4.36792 | 5.30933 | 32885 ft | 459 kts | 94° |
| 2026-04-21 08:27 | 4.36210 | 5.37302 | 32887 ft | 459 kts | 94° |
| 2026-04-21 08:28 | 4.35631 | 5.43638 | 32885 ft | 459 kts | 95° |
| 2026-04-21 08:28 | 4.35044 | 5.50044 | 32886 ft | 459 kts | 94° |
| 2026-04-21 08:29 | 4.34464 | 5.56372 | 32888 ft | 459 kts | 95° |
| 2026-04-21 08:29 | 4.33880 | 5.62744 | 32887 ft | 459 kts | 95° |
| 2026-04-21 08:30 | 4.33290 | 5.69126 | 32888 ft | 460 kts | 95° |
| 2026-04-21 08:30 | 4.32684 | 5.75506 | 32885 ft | 460 kts | 95° |
| 2026-04-21 08:31 | 4.32077 | 5.81891 | 32886 ft | 461 kts | 95° |
| 2026-04-21 08:31 | 4.31471 | 5.88286 | 32886 ft | 461 kts | 95° |
| 2026-04-21 08:32 | 4.30864 | 5.94688 | 32887 ft | 462 kts | 95° |
| 2026-04-21 08:32 | 4.30256 | 6.01100 | 32890 ft | 462 kts | 95° |
| 2026-04-21 08:33 | 4.29645 | 6.07520 | 32889 ft | 463 kts | 95° |
| 2026-04-21 08:33 | 4.29028 | 6.13940 | 32891 ft | 463 kts | 95° |
| 2026-04-21 08:34 | 4.28410 | 6.20362 | 32890 ft | 463 kts | 95° |
| 2026-04-21 08:34 | 4.27790 | 6.26792 | 32890 ft | 463 kts | 95° |
| 2026-04-21 08:35 | 4.27172 | 6.33218 | 32894 ft | 463 kts | 95° |
| 2026-04-21 08:35 | 4.26556 | 6.39601 | 32894 ft | 463 kts | 95° |
| 2026-04-21 08:36 | 4.25933 | 6.46067 | 32893 ft | 463 kts | 95° |
| 2026-04-21 08:36 | 4.25321 | 6.52450 | 32893 ft | 463 kts | 95° |
| 2026-04-21 08:37 | 4.24706 | 6.58870 | 32893 ft | 463 kts | 95° |
| 2026-04-21 08:37 | 4.24088 | 6.65298 | 32894 ft | 463 kts | 95° |
| 2026-04-21 08:38 | 4.23570 | 6.70679 | 32893 ft | 463 kts | 95° |
| 2026-04-21 08:38 | 4.22951 | 6.77067 | 32895 ft | 463 kts | 95° |
| 2026-04-21 08:39 | 4.22323 | 6.83533 | 32897 ft | 464 kts | 95° |
| 2026-04-21 08:39 | 4.21703 | 6.89920 | 32893 ft | 464 kts | 95° |
| 2026-04-21 08:40 | 4.21079 | 6.96349 | 32896 ft | 464 kts | 95° |
| 2026-04-21 08:40 | 4.20453 | 7.02787 | 32895 ft | 464 kts | 95° |
| 2026-04-21 08:41 | 4.19827 | 7.09220 | 32897 ft | 464 kts | 95° |
| 2026-04-21 08:41 | 4.19201 | 7.15655 | 32897 ft | 464 kts | 95° |
| 2026-04-21 08:42 | 4.18573 | 7.22093 | 32899 ft | 464 kts | 95° |
| 2026-04-21 08:42 | 4.17946 | 7.28526 | 32896 ft | 464 kts | 95° |
| 2026-04-21 08:43 | 4.17318 | 7.34958 | 32896 ft | 463 kts | 95° |
| 2026-04-21 08:43 | 4.16691 | 7.41376 | 32897 ft | 463 kts | 95° |
| 2026-04-21 08:44 | 4.16063 | 7.47795 | 32893 ft | 462 kts | 95° |
| 2026-04-21 08:44 | 4.15437 | 7.54200 | 32897 ft | 462 kts | 95° |
| 2026-04-21 08:45 | 4.14810 | 7.60599 | 32894 ft | 461 kts | 95° |
| 2026-04-21 08:45 | 4.14183 | 7.66992 | 32898 ft | 461 kts | 95° |
| 2026-04-21 08:46 | 4.13557 | 7.73379 | 32896 ft | 460 kts | 95° |
| 2026-04-21 08:46 | 4.12931 | 7.79756 | 32896 ft | 460 kts | 95° |
| 2026-04-21 08:47 | 4.12309 | 7.86086 | 32900 ft | 459 kts | 95° |
| 2026-04-21 08:47 | 4.11781 | 7.92460 | 32899 ft | 459 kts | 94° |
| 2026-04-21 08:48 | 4.11378 | 7.98838 | 32895 ft | 459 kts | 93° |
| 2026-04-21 08:48 | 4.10976 | 8.05213 | 32897 ft | 458 kts | 94° |
| 2026-04-21 08:49 | 4.10556 | 8.11587 | 32896 ft | 458 kts | 94° |
| 2026-04-21 08:49 | 4.10126 | 8.17961 | 32897 ft | 458 kts | 94° |
| 2026-04-21 08:50 | 4.09694 | 8.24334 | 32900 ft | 458 kts | 94° |
| 2026-04-21 08:50 | 4.09262 | 8.30703 | 32900 ft | 458 kts | 94° |
| 2026-04-21 08:51 | 4.08829 | 8.37085 | 32897 ft | 458 kts | 93° |
| 2026-04-21 08:51 | 4.08397 | 8.43453 | 32900 ft | 458 kts | 93° |
| 2026-04-21 08:52 | 4.07964 | 8.49822 | 32897 ft | 458 kts | 93° |
| 2026-04-21 08:52 | 4.07533 | 8.56149 | 32896 ft | 459 kts | 93° |
| 2026-04-21 08:53 | 4.07099 | 8.62521 | 32892 ft | 459 kts | 93° |
| 2026-04-21 08:53 | 4.06663 | 8.68900 | 32888 ft | 459 kts | 93° |
| 2026-04-21 08:54 | 4.06227 | 8.75284 | 32891 ft | 459 kts | 93° |
| 2026-04-21 08:54 | 4.05790 | 8.81671 | 32903 ft | 460 kts | 93° |
| 2026-04-21 08:55 | 4.05353 | 8.88057 | 32911 ft | 460 kts | 93° |
| 2026-04-21 08:55 | 4.04915 | 8.94457 | 32919 ft | 461 kts | 94° |
| 2026-04-21 08:56 | 4.04475 | 9.00860 | 32921 ft | 461 kts | 94° |
| 2026-04-21 08:56 | 4.04035 | 9.07262 | 32923 ft | 461 kts | 93° |
| 2026-04-21 08:57 | 4.03595 | 9.13673 | 32924 ft | 461 kts | 94° |
| 2026-04-21 08:57 | 4.03153 | 9.20083 | 32916 ft | 461 kts | 94° |
| 2026-04-21 08:58 | 4.02711 | 9.26497 | 32917 ft | 461 kts | 94° |
| 2026-04-21 08:58 | 4.02271 | 9.32860 | 32912 ft | 461 kts | 94° |
| 2026-04-21 08:59 | 4.01829 | 9.39270 | 32908 ft | 461 kts | 94° |
| 2026-04-21 08:59 | 4.01385 | 9.45678 | 32900 ft | 461 kts | 94° |
| 2026-04-21 09:00 | 4.00942 | 9.52087 | 32891 ft | 461 kts | 94° |
| 2026-04-21 09:00 | 4.00497 | 9.58496 | 32886 ft | 461 kts | 94° |
| 2026-04-21 09:01 | 4.00053 | 9.64900 | 32886 ft | 461 kts | 93° |
| 2026-04-21 09:01 | 3.99608 | 9.71305 | 32887 ft | 461 kts | 93° |
| 2026-04-21 09:02 | 3.99008 | 9.77706 | 32885 ft | 462 kts | 97° |
| 2026-04-21 09:02 | 3.98048 | 9.84022 | 32888 ft | 462 kts | 98° |
| 2026-04-21 09:03 | 3.96575 | 9.93570 | 32889 ft | 462 kts | 98° |
| 2026-04-21 09:03 | 3.95638 | 9.99939 | 32892 ft | 463 kts | 97° |
| 2026-04-21 09:04 | 3.94706 | 10.06317 | 32891 ft | 463 kts | 98° |
| 2026-04-21 09:04 | 3.93770 | 10.12696 | 32894 ft | 463 kts | 98° |
| 2026-04-21 09:05 | 3.92832 | 10.19078 | 32897 ft | 463 kts | 98° |
| 2026-04-21 09:05 | 3.91890 | 10.25460 | 32906 ft | 463 kts | 98° |
| 2026-04-21 09:06 | 3.90948 | 10.31847 | 32902 ft | 464 kts | 98° |
| 2026-04-21 09:06 | 3.90010 | 10.38199 | 32905 ft | 464 kts | 98° |
| 2026-04-21 09:07 | 3.89066 | 10.44590 | 32903 ft | 464 kts | 98° |
| 2026-04-21 09:07 | 3.88123 | 10.50978 | 32904 ft | 463 kts | 98° |
| 2026-04-21 09:08 | 3.87179 | 10.57365 | 32907 ft | 463 kts | 98° |
| 2026-04-21 09:08 | 3.86236 | 10.63744 | 32911 ft | 463 kts | 98° |
| 2026-04-21 09:09 | 3.85293 | 10.70119 | 32914 ft | 463 kts | 98° |
| 2026-04-21 09:09 | 3.84349 | 10.76492 | 32915 ft | 462 kts | 98° |
| 2026-04-21 09:10 | 3.83407 | 10.82855 | 32920 ft | 462 kts | 98° |
| 2026-04-21 09:10 | 3.82470 | 10.89176 | 32925 ft | 461 kts | 98° |
| 2026-04-21 09:11 | 3.81528 | 10.95532 | 32925 ft | 461 kts | 98° |
| 2026-04-21 09:11 | 3.80586 | 11.01882 | 32928 ft | 461 kts | 98° |
| 2026-04-21 09:12 | 3.79645 | 11.08227 | 32931 ft | 461 kts | 98° |
| 2026-04-21 09:12 | 3.78702 | 11.14573 | 32935 ft | 460 kts | 98° |
| 2026-04-21 09:13 | 3.77760 | 11.20915 | 32937 ft | 460 kts | 98° |
| 2026-04-21 09:13 | 3.76819 | 11.27250 | 32945 ft | 460 kts | 98° |
| 2026-04-21 09:14 | 3.75875 | 11.33598 | 32958 ft | 460 kts | 98° |
| 2026-04-21 09:14 | 3.74931 | 11.39944 | 32962 ft | 461 kts | 98° |
| 2026-04-21 09:15 | 3.73986 | 11.46292 | 32995 ft | 461 kts | 98° |
| 2026-04-21 09:15 | 3.73040 | 11.52642 | 32993 ft | 461 kts | 98° |
| 2026-04-21 09:16 | 3.71966 | 11.58977 | 32993 ft | 461 kts | 102° |
| 2026-04-21 09:16 | 3.70574 | 11.65250 | 32996 ft | 462 kts | 103° |
| 2026-04-21 09:17 | 3.69142 | 11.71516 | 32978 ft | 462 kts | 103° |
| 2026-04-21 09:17 | 3.67742 | 11.77795 | 32972 ft | 462 kts | 102° |
| 2026-04-21 09:18 | 3.66362 | 11.84082 | 32959 ft | 462 kts | 102° |
| 2026-04-21 09:18 | 3.64996 | 11.90330 | 32943 ft | 462 kts | 102° |
| 2026-04-21 09:19 | 3.63621 | 11.96614 | 32953 ft | 462 kts | 102° |
| 2026-04-21 09:19 | 3.62245 | 12.02897 | 32944 ft | 462 kts | 102° |
| 2026-04-21 09:20 | 3.60867 | 12.09181 | 32947 ft | 462 kts | 102° |
| 2026-04-21 09:20 | 3.59490 | 12.15459 | 32949 ft | 462 kts | 102° |
| 2026-04-21 09:21 | 3.58112 | 12.21741 | 32942 ft | 462 kts | 102° |
| 2026-04-21 09:21 | 3.56734 | 12.28021 | 32944 ft | 462 kts | 102° |
| 2026-04-21 09:22 | 3.55356 | 12.34300 | 32937 ft | 462 kts | 102° |
| 2026-04-21 09:22 | 3.53979 | 12.40572 | 32934 ft | 461 kts | 102° |
| 2026-04-21 09:23 | 3.52601 | 12.46843 | 32927 ft | 461 kts | 102° |
| 2026-04-21 09:23 | 3.51456 | 12.52054 | 32934 ft | 461 kts | 102° |
| 2026-04-21 09:24 | 3.49857 | 12.59332 | 32934 ft | 460 kts | 102° |
| 2026-04-21 09:24 | 3.48482 | 12.65586 | 32927 ft | 460 kts | 102° |
| 2026-04-21 09:25 | 3.47330 | 12.70822 | 32924 ft | 459 kts | 102° |
| 2026-04-21 09:25 | 3.45955 | 12.77057 | 32928 ft | 458 kts | 102° |
| 2026-04-21 09:26 | 3.44582 | 12.83277 | 32925 ft | 458 kts | 102° |
| 2026-04-21 09:26 | 3.43220 | 12.89450 | 32930 ft | 457 kts | 102° |
| 2026-04-21 09:27 | 3.41849 | 12.95659 | 32923 ft | 456 kts | 102° |
| 2026-04-21 09:27 | 3.40481 | 13.01858 | 32922 ft | 456 kts | 102° |
| 2026-04-21 09:28 | 3.39114 | 13.08048 | 32921 ft | 455 kts | 103° |
| 2026-04-21 09:28 | 3.37748 | 13.14233 | 32922 ft | 454 kts | 103° |
| 2026-04-21 09:29 | 3.36386 | 13.20397 | 32914 ft | 454 kts | 103° |
| 2026-04-21 09:29 | 3.35019 | 13.26578 | 32913 ft | 453 kts | 103° |
| 2026-04-21 09:30 | 3.33658 | 13.32733 | 32921 ft | 453 kts | 103° |
| 2026-04-21 09:30 | 3.32305 | 13.38852 | 32917 ft | 453 kts | 103° |
| 2026-04-21 09:31 | 3.30943 | 13.45007 | 32914 ft | 453 kts | 103° |
| 2026-04-21 09:31 | 3.29573 | 13.51202 | 32921 ft | 459 kts | 103° |
| 2026-04-21 09:32 | 3.28185 | 13.57469 | 32933 ft | 464 kts | 103° |
| 2026-04-21 09:32 | 3.27488 | 13.60622 | 33154 ft | 463 kts | 103° |
| 2026-04-21 09:32 | 3.26794 | 13.63765 | 33445 ft | 461 kts | 103° |
| 2026-04-21 09:33 | 3.26105 | 13.66884 | 33693 ft | 459 kts | 103° |
| 2026-04-21 09:33 | 3.25415 | 13.70010 | 33888 ft | 459 kts | 103° |
| 2026-04-21 09:33 | 3.24725 | 13.73131 | 34045 ft | 460 kts | 103° |
| 2026-04-21 09:33 | 3.24035 | 13.76252 | 34243 ft | 459 kts | 103° |
| 2026-04-21 09:34 | 3.23348 | 13.79362 | 34456 ft | 457 kts | 103° |
| 2026-04-21 09:34 | 3.22661 | 13.82468 | 34651 ft | 456 kts | 103° |
| 2026-04-21 09:34 | 3.21978 | 13.85558 | 34834 ft | 454 kts | 103° |
| 2026-04-21 09:34 | 3.21296 | 13.88644 | 34890 ft | 455 kts | 103° |
| 2026-04-21 09:35 | 3.19924 | 13.94847 | 34898 ft | 457 kts | 103° |
| 2026-04-21 09:35 | 3.18555 | 14.01034 | 34897 ft | 454 kts | 102° |
| 2026-04-21 09:36 | 3.17192 | 14.07193 | 34899 ft | 452 kts | 102° |
| 2026-04-21 09:36 | 3.15844 | 14.13283 | 34899 ft | 451 kts | 102° |
| 2026-04-21 09:37 | 3.14490 | 14.19398 | 34894 ft | 449 kts | 102° |
| 2026-04-21 09:37 | 3.13139 | 14.25496 | 34899 ft | 448 kts | 102° |
| 2026-04-21 09:38 | 3.11790 | 14.31585 | 34903 ft | 448 kts | 102° |
| 2026-04-21 09:38 | 3.10441 | 14.37673 | 34900 ft | 448 kts | 102° |
| 2026-04-21 09:39 | 3.09091 | 14.43764 | 34894 ft | 448 kts | 102° |
| 2026-04-21 09:39 | 3.07742 | 14.49852 | 34898 ft | 448 kts | 102° |
| 2026-04-21 09:40 | 3.06390 | 14.55946 | 34901 ft | 449 kts | 102° |
| 2026-04-21 09:40 | 3.05037 | 14.62048 | 34898 ft | 449 kts | 102° |
| 2026-04-21 09:41 | 3.03683 | 14.68149 | 34894 ft | 449 kts | 102° |
| 2026-04-21 09:41 | 3.02329 | 14.74251 | 34893 ft | 450 kts | 102° |
| 2026-04-21 09:42 | 3.00974 | 14.80357 | 34899 ft | 450 kts | 102° |
| 2026-04-21 09:42 | 2.99617 | 14.86465 | 34891 ft | 450 kts | 102° |
| 2026-04-21 09:43 | 2.98260 | 14.92575 | 34889 ft | 450 kts | 102° |
| 2026-04-21 09:43 | 2.96903 | 14.98683 | 34891 ft | 449 kts | 102° |
| 2026-04-21 09:44 | 2.95549 | 15.04779 | 34889 ft | 449 kts | 102° |
| 2026-04-21 09:44 | 2.94204 | 15.10828 | 34884 ft | 448 kts | 102° |
| 2026-04-21 09:45 | 2.92850 | 15.16917 | 34891 ft | 448 kts | 102° |
| 2026-04-21 09:45 | 2.91497 | 15.23002 | 34892 ft | 448 kts | 102° |
| 2026-04-21 09:46 | 2.90146 | 15.29075 | 34892 ft | 447 kts | 102° |
| 2026-04-21 09:46 | 2.88795 | 15.35145 | 34890 ft | 447 kts | 102° |
| 2026-04-21 09:47 | 2.87443 | 15.41220 | 34897 ft | 447 kts | 102° |
| 2026-04-21 09:47 | 2.86092 | 15.47288 | 34890 ft | 447 kts | 102° |
| 2026-04-21 09:48 | 2.84743 | 15.53349 | 34889 ft | 447 kts | 102° |
| 2026-04-21 09:48 | 2.83400 | 15.59378 | 34892 ft | 447 kts | 103° |
| 2026-04-21 09:49 | 2.82050 | 15.65439 | 34889 ft | 447 kts | 103° |
| 2026-04-21 09:49 | 2.80698 | 15.71507 | 34882 ft | 447 kts | 103° |
| 2026-04-21 09:50 | 2.79792 | 15.75568 | 34884 ft | 447 kts | 103° |
| 2026-04-21 09:50 | 2.77989 | 15.83639 | 34884 ft | 447 kts | 103° |
| 2026-04-21 09:51 | 2.76634 | 15.89710 | 34888 ft | 447 kts | 103° |
| 2026-04-21 09:51 | 2.75279 | 15.95781 | 34893 ft | 447 kts | 103° |
| 2026-04-21 09:52 | 2.73923 | 16.01852 | 34891 ft | 448 kts | 103° |
| 2026-04-21 09:52 | 2.72565 | 16.07932 | 34887 ft | 448 kts | 103° |
| 2026-04-21 09:53 | 2.71214 | 16.13979 | 34890 ft | 448 kts | 103° |
| 2026-04-21 09:53 | 2.69853 | 16.20068 | 34884 ft | 449 kts | 103° |
| 2026-04-21 09:54 | 2.68490 | 16.26166 | 34878 ft | 449 kts | 103° |
| 2026-04-21 09:54 | 2.67129 | 16.32255 | 34887 ft | 450 kts | 103° |
| 2026-04-21 09:55 | 2.65760 | 16.38375 | 34892 ft | 450 kts | 103° |
| 2026-04-21 09:55 | 2.64392 | 16.44488 | 34892 ft | 451 kts | 103° |
| 2026-04-21 09:56 | 2.63022 | 16.50615 | 34891 ft | 452 kts | 103° |
| 2026-04-21 09:56 | 2.61657 | 16.56712 | 34895 ft | 452 kts | 103° |
| 2026-04-21 09:57 | 2.60282 | 16.62857 | 34887 ft | 453 kts | 103° |
| 2026-04-21 09:57 | 2.58904 | 16.69008 | 34897 ft | 453 kts | 103° |
| 2026-04-21 09:58 | 2.57525 | 16.75167 | 34893 ft | 454 kts | 103° |
| 2026-04-21 09:58 | 2.56145 | 16.81325 | 34891 ft | 454 kts | 103° |
| 2026-04-21 09:59 | 2.54765 | 16.87488 | 34889 ft | 454 kts | 103° |
| 2026-04-21 09:59 | 2.53385 | 16.93644 | 34891 ft | 453 kts | 103° |
| 2026-04-21 10:00 | 2.52006 | 16.99794 | 34882 ft | 453 kts | 102° |
| 2026-04-21 10:00 | 2.50628 | 17.05940 | 34888 ft | 452 kts | 102° |
| 2026-04-21 10:01 | 2.49255 | 17.12065 | 34884 ft | 451 kts | 102° |
| 2026-04-21 10:01 | 2.47884 | 17.18176 | 34881 ft | 450 kts | 102° |
| 2026-04-21 10:02 | 2.45834 | 17.27311 | 34892 ft | 448 kts | 102° |
| 2026-04-21 10:03 | 2.44483 | 17.33329 | 34886 ft | 447 kts | 102° |
| 2026-04-21 10:03 | 2.43109 | 17.39449 | 34883 ft | 446 kts | 102° |
| 2026-04-21 10:04 | 2.41759 | 17.45462 | 34884 ft | 446 kts | 102° |
| 2026-04-21 10:04 | 2.40400 | 17.51513 | 34878 ft | 445 kts | 102° |
| 2026-04-21 10:05 | 2.39043 | 17.57557 | 34879 ft | 445 kts | 102° |
| 2026-04-21 10:05 | 2.37687 | 17.63595 | 34884 ft | 445 kts | 102° |
| 2026-04-21 10:06 | 2.36316 | 17.69646 | 34885 ft | 446 kts | 103° |
| 2026-04-21 10:06 | 2.34903 | 17.75692 | 34881 ft | 447 kts | 103° |
| 2026-04-21 10:07 | 2.33570 | 17.81769 | 34878 ft | 448 kts | 102° |
| 2026-04-21 10:07 | 2.32287 | 17.87867 | 34881 ft | 448 kts | 102° |
| 2026-04-21 10:08 | 2.31002 | 17.93922 | 34878 ft | 449 kts | 102° |
| 2026-04-21 10:08 | 2.29696 | 18.00034 | 34874 ft | 449 kts | 102° |
| 2026-04-21 10:09 | 2.28388 | 18.06146 | 34876 ft | 450 kts | 102° |
| 2026-04-21 10:09 | 2.27077 | 18.12264 | 34876 ft | 450 kts | 102° |
| 2026-04-21 10:10 | 2.25597 | 18.18339 | 34875 ft | 450 kts | 104° |
| 2026-04-21 10:10 | 2.24035 | 18.24396 | 34873 ft | 449 kts | 104° |
| 2026-04-21 10:11 | 2.22499 | 18.30446 | 34874 ft | 449 kts | 104° |
| 2026-04-21 10:11 | 2.20982 | 18.36496 | 34870 ft | 448 kts | 104° |
| 2026-04-21 10:12 | 2.19470 | 18.42536 | 34875 ft | 448 kts | 104° |
| 2026-04-21 10:12 | 2.17955 | 18.48580 | 34866 ft | 447 kts | 104° |
| 2026-04-21 10:13 | 2.16717 | 18.53596 | 34871 ft | 447 kts | 103° |
| 2026-04-21 10:13 | 2.15253 | 18.59640 | 34870 ft | 447 kts | 103° |
| 2026-04-21 10:14 | 2.13555 | 18.66651 | 34873 ft | 446 kts | 103° |
| 2026-04-21 10:14 | 2.12327 | 18.71705 | 34874 ft | 446 kts | 103° |
| 2026-04-21 10:15 | 2.10869 | 18.77703 | 34869 ft | 446 kts | 103° |
| 2026-04-21 10:15 | 2.09402 | 18.83734 | 34868 ft | 446 kts | 103° |
| 2026-04-21 10:16 | 2.07936 | 18.89761 | 34871 ft | 446 kts | 103° |
| 2026-04-21 10:16 | 2.06468 | 18.95795 | 34865 ft | 447 kts | 103° |
| 2026-04-21 10:17 | 2.04999 | 19.01834 | 34867 ft | 447 kts | 103° |
| 2026-04-21 10:17 | 2.03529 | 19.07875 | 34866 ft | 447 kts | 103° |
| 2026-04-21 10:18 | 2.02059 | 19.13916 | 34865 ft | 447 kts | 103° |
| 2026-04-21 10:18 | 2.00587 | 19.19960 | 34863 ft | 447 kts | 103° |
| 2026-04-21 10:19 | 1.99091 | 19.26003 | 34863 ft | 448 kts | 104° |
| 2026-04-21 10:19 | 1.97586 | 19.32043 | 34864 ft | 448 kts | 104° |
| 2026-04-21 10:20 | 1.96085 | 19.38085 | 34859 ft | 448 kts | 104° |
| 2026-04-21 10:20 | 1.94594 | 19.44092 | 34860 ft | 448 kts | 104° |
| 2026-04-21 10:21 | 1.93093 | 19.50145 | 34860 ft | 448 kts | 103° |
| 2026-04-21 10:21 | 1.91612 | 19.56208 | 34861 ft | 449 kts | 103° |
| 2026-04-21 10:22 | 1.90137 | 19.62270 | 34863 ft | 449 kts | 103° |
| 2026-04-21 10:22 | 1.88658 | 19.68336 | 34861 ft | 449 kts | 103° |
| 2026-04-21 10:23 | 1.87179 | 19.74401 | 34861 ft | 449 kts | 103° |
| 2026-04-21 10:23 | 1.85706 | 19.80432 | 34860 ft | 449 kts | 103° |
| 2026-04-21 10:24 | 1.84225 | 19.86504 | 34858 ft | 449 kts | 103° |
| 2026-04-21 10:24 | 1.82743 | 19.92572 | 34858 ft | 449 kts | 103° |
| 2026-04-21 10:25 | 1.81250 | 19.98636 | 34858 ft | 449 kts | 104° |
| 2026-04-21 10:25 | 1.79732 | 20.04697 | 34856 ft | 449 kts | 104° |
| 2026-04-21 10:26 | 1.78214 | 20.10751 | 34856 ft | 449 kts | 104° |
| 2026-04-21 10:26 | 1.76698 | 20.16808 | 34855 ft | 449 kts | 104° |
| 2026-04-21 10:27 | 1.75185 | 20.22863 | 34857 ft | 449 kts | 104° |
| 2026-04-21 10:27 | 1.73672 | 20.28915 | 34853 ft | 449 kts | 104° |
| 2026-04-21 10:28 | 1.72159 | 20.34966 | 34854 ft | 449 kts | 104° |
| 2026-04-21 10:28 | 1.70647 | 20.41013 | 34854 ft | 448 kts | 104° |
| 2026-04-21 10:29 | 1.69135 | 20.47060 | 34851 ft | 448 kts | 104° |
| 2026-04-21 10:29 | 1.67624 | 20.53103 | 34853 ft | 448 kts | 104° |
| 2026-04-21 10:30 | 1.66123 | 20.59104 | 34855 ft | 448 kts | 104° |
| 2026-04-21 10:30 | 1.64638 | 20.65151 | 34853 ft | 448 kts | 103° |
| 2026-04-21 10:31 | 1.63166 | 20.71199 | 34853 ft | 447 kts | 104° |
| 2026-04-21 10:31 | 1.61695 | 20.77237 | 34854 ft | 447 kts | 104° |
| 2026-04-21 10:32 | 1.60224 | 20.83265 | 34855 ft | 447 kts | 104° |
| 2026-04-21 10:32 | 1.58752 | 20.89294 | 34854 ft | 446 kts | 104° |
| 2026-04-21 10:33 | 1.57282 | 20.95308 | 34850 ft | 446 kts | 104° |
| 2026-04-21 10:33 | 1.55810 | 21.01335 | 34850 ft | 445 kts | 104° |
| 2026-04-21 10:34 | 1.54341 | 21.07346 | 34852 ft | 445 kts | 104° |
| 2026-04-21 10:34 | 1.52873 | 21.13353 | 34848 ft | 445 kts | 104° |
| 2026-04-21 10:35 | 1.51405 | 21.19360 | 34849 ft | 445 kts | 104° |
| 2026-04-21 10:35 | 1.49938 | 21.25361 | 34849 ft | 444 kts | 104° |
| 2026-04-21 10:36 | 1.48481 | 21.31323 | 34848 ft | 444 kts | 104° |
| 2026-04-21 10:36 | 1.47015 | 21.37320 | 34847 ft | 444 kts | 104° |
| 2026-04-21 10:37 | 1.45548 | 21.43323 | 34849 ft | 445 kts | 104° |
| 2026-04-21 10:37 | 1.44078 | 21.49335 | 34849 ft | 445 kts | 104° |
| 2026-04-21 10:38 | 1.42604 | 21.55341 | 34848 ft | 445 kts | 104° |
| 2026-04-21 10:38 | 1.41121 | 21.61351 | 34849 ft | 445 kts | 104° |
| 2026-04-21 10:39 | 1.39638 | 21.67358 | 34846 ft | 445 kts | 104° |
| 2026-04-21 10:39 | 1.38165 | 21.73329 | 34847 ft | 445 kts | 104° |
| 2026-04-21 10:40 | 1.36683 | 21.79341 | 34848 ft | 445 kts | 104° |
| 2026-04-21 10:40 | 1.35202 | 21.85347 | 34839 ft | 446 kts | 103° |
| 2026-04-21 10:41 | 1.33718 | 21.91364 | 34849 ft | 446 kts | 103° |
| 2026-04-21 10:41 | 1.32230 | 21.97397 | 34848 ft | 447 kts | 103° |
| 2026-04-21 10:42 | 1.30739 | 22.03439 | 34844 ft | 449 kts | 103° |
| 2026-04-21 10:42 | 1.29244 | 22.09502 | 34843 ft | 450 kts | 103° |
| 2026-04-21 10:43 | 1.27747 | 22.15569 | 34844 ft | 450 kts | 104° |
| 2026-04-21 10:43 | 1.26245 | 22.21652 | 34844 ft | 451 kts | 104° |
| 2026-04-21 10:44 | 1.24738 | 22.27734 | 34844 ft | 451 kts | 104° |
| 2026-04-21 10:44 | 1.23232 | 22.33809 | 34843 ft | 450 kts | 104° |
| 2026-04-21 10:45 | 1.21729 | 22.39879 | 34845 ft | 450 kts | 104° |
| 2026-04-21 10:45 | 1.20228 | 22.45940 | 34843 ft | 449 kts | 104° |
| 2026-04-21 10:46 | 1.18729 | 22.51989 | 34841 ft | 448 kts | 104° |
| 2026-04-21 10:46 | 1.17234 | 22.58028 | 34840 ft | 447 kts | 104° |
| 2026-04-21 10:47 | 1.15739 | 22.64060 | 34841 ft | 447 kts | 104° |
| 2026-04-21 10:47 | 1.14258 | 22.70040 | 34840 ft | 446 kts | 104° |
| 2026-04-21 10:48 | 1.12767 | 22.76058 | 34840 ft | 446 kts | 104° |
| 2026-04-21 10:48 | 1.11278 | 22.82068 | 34846 ft | 446 kts | 104° |
| 2026-04-21 10:49 | 1.09787 | 22.88083 | 34842 ft | 446 kts | 104° |
| 2026-04-21 10:49 | 1.08296 | 22.94099 | 34844 ft | 446 kts | 104° |
| 2026-04-21 10:50 | 1.06804 | 23.00120 | 34842 ft | 446 kts | 104° |
| 2026-04-21 10:50 | 1.05310 | 23.06145 | 34847 ft | 447 kts | 104° |
| 2026-04-21 10:51 | 1.03816 | 23.12173 | 34845 ft | 447 kts | 104° |
| 2026-04-21 10:51 | 1.02330 | 23.18167 | 34845 ft | 447 kts | 104° |
| 2026-04-21 10:52 | 1.00831 | 23.24212 | 34847 ft | 448 kts | 104° |
| 2026-04-21 10:52 | 0.99333 | 23.30254 | 34846 ft | 448 kts | 104° |
| 2026-04-21 10:53 | 0.97833 | 23.36303 | 34849 ft | 448 kts | 104° |
| 2026-04-21 10:53 | 0.96333 | 23.42352 | 34846 ft | 448 kts | 104° |
| 2026-04-21 10:54 | 0.94834 | 23.48395 | 34847 ft | 448 kts | 104° |
| 2026-04-21 10:54 | 0.93333 | 23.54444 | 34846 ft | 448 kts | 104° |
| 2026-04-21 10:55 | 0.91847 | 23.60438 | 34842 ft | 447 kts | 104° |
| 2026-04-21 10:55 | 0.90350 | 23.66472 | 34842 ft | 447 kts | 104° |
| 2026-04-21 10:56 | 0.88855 | 23.72497 | 34845 ft | 447 kts | 104° |
| 2026-04-21 10:56 | 0.87360 | 23.78521 | 34843 ft | 446 kts | 104° |
| 2026-04-21 10:57 | 0.85865 | 23.84546 | 34844 ft | 446 kts | 104° |
| 2026-04-21 10:57 | 0.84372 | 23.90562 | 34840 ft | 446 kts | 104° |
| 2026-04-21 10:58 | 0.82880 | 23.96574 | 34845 ft | 446 kts | 104° |
| 2026-04-21 10:58 | 0.81387 | 24.02590 | 34841 ft | 446 kts | 104° |
| 2026-04-21 10:59 | 0.79894 | 24.08605 | 34846 ft | 446 kts | 104° |
| 2026-04-21 10:59 | 0.78401 | 24.14619 | 34845 ft | 446 kts | 104° |
| 2026-04-21 11:00 | 0.76910 | 24.20628 | 34845 ft | 446 kts | 104° |
| 2026-04-21 11:00 | 0.75426 | 24.26606 | 34842 ft | 446 kts | 104° |
| 2026-04-21 11:01 | 0.73931 | 24.32626 | 34845 ft | 446 kts | 104° |
| 2026-04-21 11:01 | 0.72434 | 24.38657 | 34842 ft | 447 kts | 104° |
| 2026-04-21 11:02 | 0.70443 | 24.46681 | 34843 ft | 447 kts | 104° |
| 2026-04-21 11:02 | 0.68701 | 24.53694 | 34843 ft | 447 kts | 104° |
| 2026-04-21 11:03 | 0.67220 | 24.59728 | 34843 ft | 447 kts | 104° |
| 2026-04-21 11:03 | 0.65746 | 24.65768 | 34842 ft | 447 kts | 104° |
| 2026-04-21 11:04 | 0.64520 | 24.70789 | 34841 ft | 448 kts | 104° |
| 2026-04-21 11:04 | 0.63042 | 24.76836 | 34842 ft | 448 kts | 104° |
| 2026-04-21 11:05 | 0.61564 | 24.82878 | 34837 ft | 448 kts | 104° |
| 2026-04-21 11:05 | 0.60085 | 24.88927 | 34839 ft | 448 kts | 104° |
| 2026-04-21 11:06 | 0.58606 | 24.94977 | 34835 ft | 449 kts | 104° |
| 2026-04-21 11:06 | 0.57120 | 25.01050 | 34842 ft | 450 kts | 104° |
| 2026-04-21 11:07 | 0.55635 | 25.07121 | 34858 ft | 450 kts | 104° |
| 2026-04-21 11:07 | 0.54146 | 25.13211 | 34869 ft | 451 kts | 104° |
| 2026-04-21 11:08 | 0.52657 | 25.19300 | 34876 ft | 452 kts | 104° |
| 2026-04-21 11:08 | 0.51165 | 25.25399 | 34885 ft | 452 kts | 104° |
| 2026-04-21 11:09 | 0.49698 | 25.31503 | 34884 ft | 452 kts | 101° |
| 2026-04-21 11:09 | 0.49108 | 25.37719 | 34885 ft | 452 kts | 94° |
| 2026-04-21 11:10 | 0.48786 | 25.43999 | 34881 ft | 452 kts | 94° |
| 2026-04-21 11:10 | 0.48443 | 25.50272 | 34873 ft | 452 kts | 94° |
| 2026-04-21 11:11 | 0.48066 | 25.56535 | 34863 ft | 451 kts | 94° |
| 2026-04-21 11:11 | 0.47676 | 25.62789 | 34852 ft | 451 kts | 94° |
| 2026-04-21 11:12 | 0.47284 | 25.69049 | 34843 ft | 451 kts | 94° |
| 2026-04-21 11:12 | 0.46898 | 25.75254 | 34842 ft | 450 kts | 94° |
| 2026-04-21 11:13 | 0.46509 | 25.81497 | 34841 ft | 450 kts | 94° |
| 2026-04-21 11:13 | 0.46121 | 25.87741 | 34839 ft | 450 kts | 94° |
| 2026-04-21 11:14 | 0.45733 | 25.93983 | 34836 ft | 450 kts | 94° |
| 2026-04-21 11:14 | 0.45344 | 26.00229 | 34837 ft | 450 kts | 94° |
| 2026-04-21 11:15 | 0.44955 | 26.06475 | 34837 ft | 450 kts | 94° |
| 2026-04-21 11:15 | 0.44566 | 26.12719 | 34835 ft | 451 kts | 94° |
| 2026-04-21 11:16 | 0.44178 | 26.18971 | 34835 ft | 451 kts | 94° |
| 2026-04-21 11:16 | 0.43793 | 26.25224 | 34832 ft | 451 kts | 94° |
| 2026-04-21 11:17 | 0.43409 | 26.31473 | 34834 ft | 451 kts | 94° |
| 2026-04-21 11:17 | 0.43027 | 26.37687 | 34833 ft | 451 kts | 94° |
| 2026-04-21 11:18 | 0.42643 | 26.43945 | 34833 ft | 451 kts | 94° |
| 2026-04-21 11:18 | 0.42258 | 26.50197 | 34833 ft | 451 kts | 94° |
| 2026-04-21 11:19 | 0.41873 | 26.56452 | 34831 ft | 451 kts | 95° |
| 2026-04-21 11:19 | 0.41489 | 26.62702 | 34829 ft | 451 kts | 95° |
| 2026-04-21 11:20 | 0.41104 | 26.68956 | 34828 ft | 451 kts | 95° |
| 2026-04-21 11:20 | 0.40719 | 26.75204 | 34829 ft | 451 kts | 95° |
| 2026-04-21 11:21 | 0.40334 | 26.81471 | 34884 ft | 455 kts | 95° |
| 2026-04-21 11:21 | 0.40139 | 26.84631 | 34986 ft | 457 kts | 95° |
| 2026-04-21 11:21 | 0.39944 | 26.87800 | 35158 ft | 457 kts | 95° |
| 2026-04-21 11:22 | 0.39750 | 26.90956 | 35426 ft | 454 kts | 95° |
| 2026-04-21 11:22 | 0.39556 | 26.94099 | 35672 ft | 452 kts | 95° |
| 2026-04-21 11:22 | 0.39364 | 26.97232 | 35876 ft | 452 kts | 94° |
| 2026-04-21 11:22 | 0.39173 | 27.00330 | 36052 ft | 451 kts | 95° |
| 2026-04-21 11:23 | 0.38979 | 27.03489 | 36237 ft | 451 kts | 94° |
| 2026-04-21 11:23 | 0.38786 | 27.06614 | 36425 ft | 450 kts | 95° |
| 2026-04-21 11:23 | 0.38594 | 27.09734 | 36610 ft | 450 kts | 94° |
| 2026-04-21 11:23 | 0.38405 | 27.12803 | 36782 ft | 446 kts | 94° |
| 2026-04-21 11:24 | 0.38023 | 27.18998 | 36818 ft | 448 kts | 94° |
| 2026-04-21 11:24 | 0.37638 | 27.25237 | 36826 ft | 451 kts | 94° |
| 2026-04-21 11:25 | 0.37252 | 27.31510 | 36824 ft | 453 kts | 94° |
| 2026-04-21 11:25 | 0.36864 | 27.37799 | 36816 ft | 454 kts | 94° |
| 2026-04-21 11:26 | 0.36479 | 27.44063 | 36803 ft | 449 kts | 94° |
| 2026-04-21 11:26 | 0.36098 | 27.50249 | 36800 ft | 443 kts | 94° |
| 2026-04-21 11:27 | 0.35721 | 27.56365 | 36798 ft | 439 kts | 94° |
| 2026-04-21 11:27 | 0.35346 | 27.62442 | 36810 ft | 440 kts | 94° |
| 2026-04-21 11:28 | 0.34967 | 27.68582 | 36812 ft | 445 kts | 94° |
| 2026-04-21 11:28 | 0.34584 | 27.74790 | 36803 ft | 450 kts | 94° |
| 2026-04-21 11:29 | 0.34198 | 27.81056 | 36803 ft | 454 kts | 94° |
| 2026-04-21 11:29 | 0.33809 | 27.87359 | 36789 ft | 454 kts | 94° |
| 2026-04-21 11:30 | 0.33423 | 27.93618 | 36787 ft | 449 kts | 94° |
| 2026-04-21 11:30 | 0.33044 | 27.99806 | 36787 ft | 443 kts | 94° |
| 2026-04-21 11:31 | 0.32671 | 28.05923 | 36788 ft | 439 kts | 94° |
| 2026-04-21 11:31 | 0.32301 | 28.11972 | 36802 ft | 440 kts | 94° |
| 2026-04-21 11:32 | 0.31926 | 28.18107 | 36809 ft | 445 kts | 94° |
| 2026-04-21 11:32 | 0.31546 | 28.24316 | 36802 ft | 449 kts | 94° |
| 2026-04-21 11:33 | 0.31161 | 28.30611 | 36799 ft | 453 kts | 94° |
| 2026-04-21 11:33 | 0.30778 | 28.36867 | 36800 ft | 455 kts | 94° |
| 2026-04-21 11:34 | 0.30393 | 28.43183 | 36793 ft | 454 kts | 94° |
| 2026-04-21 11:34 | 0.30009 | 28.49454 | 36791 ft | 449 kts | 94° |
| 2026-04-21 11:35 | 0.29631 | 28.55633 | 36792 ft | 443 kts | 94° |
| 2026-04-21 11:35 | 0.29256 | 28.61760 | 36793 ft | 440 kts | 94° |
| 2026-04-21 11:36 | 0.28882 | 28.67874 | 36813 ft | 442 kts | 94° |
| 2026-04-21 11:36 | 0.28508 | 28.73982 | 36816 ft | 446 kts | 94° |
| 2026-04-21 11:37 | 0.28128 | 28.80197 | 36812 ft | 451 kts | 94° |
| 2026-04-21 11:37 | 0.27744 | 28.86472 | 36813 ft | 454 kts | 94° |
| 2026-04-21 11:38 | 0.27357 | 28.92789 | 36809 ft | 455 kts | 94° |
| 2026-04-21 11:38 | 0.26973 | 28.99077 | 36812 ft | 451 kts | 94° |
| 2026-04-21 11:39 | 0.26593 | 29.05289 | 36819 ft | 445 kts | 94° |
| 2026-04-21 11:39 | 0.26216 | 29.11435 | 36827 ft | 442 kts | 94° |
| 2026-04-21 11:40 | 0.25841 | 29.17558 | 36847 ft | 443 kts | 94° |
| 2026-04-21 11:40 | 0.25463 | 29.23734 | 36854 ft | 448 kts | 94° |
| 2026-04-21 11:41 | 0.25081 | 29.29981 | 36854 ft | 452 kts | 94° |
| 2026-04-21 11:41 | 0.24698 | 29.36238 | 36853 ft | 455 kts | 94° |
| 2026-04-21 11:42 | 0.24211 | 29.42546 | 36856 ft | 454 kts | 95° |
| 2026-04-21 11:42 | 0.23771 | 29.48809 | 36853 ft | 449 kts | 93° |
| 2026-04-21 11:43 | 0.23421 | 29.55003 | 36875 ft | 444 kts | 93° |
| 2026-04-21 11:43 | 0.23065 | 29.61136 | 36887 ft | 441 kts | 93° |
| 2026-04-21 11:44 | 0.22696 | 29.67260 | 36912 ft | 443 kts | 93° |
| 2026-04-21 11:44 | 0.22320 | 29.73434 | 36920 ft | 448 kts | 93° |
| 2026-04-21 11:45 | 0.21939 | 29.79682 | 36941 ft | 452 kts | 93° |
| 2026-04-21 11:45 | 0.21557 | 29.85974 | 36959 ft | 455 kts | 93° |
| 2026-04-21 11:46 | 0.21176 | 29.92284 | 36974 ft | 454 kts | 93° |
| 2026-04-21 11:46 | 0.20813 | 29.98559 | 36980 ft | 451 kts | 93° |
| 2026-04-21 11:47 | 0.20460 | 30.04726 | 36989 ft | 444 kts | 93° |
| 2026-04-21 11:47 | 0.20107 | 30.10868 | 36989 ft | 442 kts | 93° |
| 2026-04-21 11:48 | 0.19754 | 30.16986 | 36994 ft | 440 kts | 93° |
| 2026-04-21 11:48 | 0.19401 | 30.23103 | 36996 ft | 443 kts | 93° |
| 2026-04-21 11:49 | 0.19045 | 30.29280 | 36978 ft | 449 kts | 93° |
| 2026-04-21 11:49 | 0.18684 | 30.35527 | 36957 ft | 452 kts | 93° |
| 2026-04-21 11:50 | 0.18321 | 30.41815 | 36930 ft | 454 kts | 93° |
| 2026-04-21 11:50 | 0.17958 | 30.48101 | 36913 ft | 452 kts | 93° |
| 2026-04-21 11:51 | 0.17658 | 30.53291 | 36909 ft | 448 kts | 93° |
| 2026-04-21 11:51 | 0.17242 | 30.60468 | 36918 ft | 441 kts | 94° |
| 2026-04-21 11:52 | 0.16916 | 30.65558 | 36922 ft | 437 kts | 94° |
| 2026-04-21 11:52 | 0.16514 | 30.71585 | 36934 ft | 438 kts | 94° |
| 2026-04-21 11:53 | 0.16109 | 30.77688 | 36938 ft | 443 kts | 94° |
| 2026-04-21 11:53 | 0.15704 | 30.83857 | 36943 ft | 446 kts | 94° |
| 2026-04-21 11:54 | 0.15297 | 30.90052 | 36932 ft | 448 kts | 94° |
| 2026-04-21 11:54 | 0.14892 | 30.96244 | 36926 ft | 445 kts | 94° |
| 2026-04-21 11:55 | 0.14491 | 31.02372 | 36926 ft | 439 kts | 94° |
| 2026-04-21 11:55 | 0.14093 | 31.08437 | 36930 ft | 435 kts | 94° |
| 2026-04-21 11:56 | 0.13698 | 31.14461 | 36940 ft | 436 kts | 94° |
| 2026-04-21 11:56 | 0.13300 | 31.20537 | 36941 ft | 441 kts | 94° |
| 2026-04-21 11:57 | 0.12897 | 31.26683 | 36936 ft | 446 kts | 94° |
| 2026-04-21 11:57 | 0.12490 | 31.32906 | 36926 ft | 451 kts | 94° |
| 2026-04-21 11:58 | 0.12081 | 31.39178 | 36906 ft | 453 kts | 94° |
| 2026-04-21 11:58 | 0.11679 | 31.45453 | 36891 ft | 452 kts | 94° |
| 2026-04-21 11:59 | 0.11282 | 31.51674 | 36878 ft | 446 kts | 94° |
| 2026-04-21 11:59 | 0.10886 | 31.57839 | 36886 ft | 443 kts | 94° |
| 2026-04-21 12:00 | 0.10493 | 31.63972 | 36884 ft | 442 kts | 94° |
| 2026-04-21 12:00 | 0.10103 | 31.70059 | 36889 ft | 442 kts | 94° |
| 2026-04-21 12:01 | 0.09705 | 31.76191 | 36890 ft | 443 kts | 94° |
| 2026-04-21 12:01 | 0.09302 | 31.82359 | 36892 ft | 446 kts | 94° |
| 2026-04-21 12:02 | 0.08695 | 31.91671 | 36893 ft | 450 kts | 94° |
| 2026-04-21 12:03 | 0.08288 | 31.97918 | 36891 ft | 452 kts | 93° |
| 2026-04-21 12:03 | 0.07879 | 32.04203 | 36889 ft | 454 kts | 93° |
| 2026-04-21 12:04 | 0.07468 | 32.10509 | 36898 ft | 455 kts | 93° |
| 2026-04-21 12:04 | 0.07057 | 32.16817 | 36929 ft | 455 kts | 93° |
| 2026-04-21 12:05 | 0.06646 | 32.23128 | 36956 ft | 455 kts | 93° |
| 2026-04-21 12:05 | 0.06236 | 32.29422 | 36970 ft | 453 kts | 93° |
| 2026-04-21 12:06 | 0.05827 | 32.35701 | 36997 ft | 452 kts | 93° |
| 2026-04-21 12:06 | 0.05417 | 32.41958 | 36992 ft | 451 kts | 94° |
| 2026-04-21 12:07 | 0.04125 | 32.48015 | 37005 ft | 450 kts | 106° |
| 2026-04-21 12:07 | 0.02217 | 32.53965 | 36991 ft | 449 kts | 107° |
| 2026-04-21 12:08 | 0.00310 | 32.59897 | 36968 ft | 448 kts | 107° |
| 2026-04-21 12:08 | -0.01558 | 32.65838 | 36941 ft | 448 kts | 106° |
| 2026-04-21 12:09 | -0.03408 | 32.71780 | 36917 ft | 448 kts | 106° |
| 2026-04-21 12:09 | -0.05255 | 32.77726 | 36895 ft | 449 kts | 106° |
| 2026-04-21 12:10 | -0.07107 | 32.83684 | 36887 ft | 449 kts | 107° |
| 2026-04-21 12:10 | -0.08963 | 32.89655 | 36886 ft | 450 kts | 106° |
| 2026-04-21 12:11 | -0.10821 | 32.95629 | 36888 ft | 451 kts | 107° |
| 2026-04-21 12:11 | -0.12684 | 33.01619 | 36885 ft | 452 kts | 107° |
| 2026-04-21 12:12 | -0.14548 | 33.07616 | 36885 ft | 452 kts | 107° |
| 2026-04-21 12:12 | -0.16415 | 33.13618 | 36885 ft | 453 kts | 107° |
| 2026-04-21 12:13 | -0.18283 | 33.19625 | 36884 ft | 453 kts | 107° |
| 2026-04-21 12:13 | -0.20152 | 33.25635 | 36887 ft | 453 kts | 107° |
| 2026-04-21 12:14 | -0.22020 | 33.31645 | 36883 ft | 452 kts | 107° |
| 2026-04-21 12:14 | -0.23884 | 33.37638 | 36881 ft | 452 kts | 107° |
| 2026-04-21 12:15 | -0.25746 | 33.43629 | 36879 ft | 451 kts | 107° |
| 2026-04-21 12:15 | -0.27632 | 33.49607 | 36878 ft | 451 kts | 108° |
| 2026-04-21 12:16 | -0.29613 | 33.55546 | 36877 ft | 450 kts | 108° |
| 2026-04-21 12:16 | -0.31602 | 33.61474 | 36872 ft | 450 kts | 108° |
| 2026-04-21 12:17 | -0.33576 | 33.67400 | 36871 ft | 449 kts | 108° |
| 2026-04-21 12:17 | -0.35543 | 33.73324 | 36870 ft | 449 kts | 108° |
| 2026-04-21 12:18 | -0.37496 | 33.79210 | 36868 ft | 449 kts | 108° |
| 2026-04-21 12:18 | -0.39462 | 33.85134 | 36868 ft | 449 kts | 108° |
| 2026-04-21 12:19 | -0.41427 | 33.91054 | 36866 ft | 449 kts | 108° |
| 2026-04-21 12:19 | -0.43391 | 33.96972 | 36863 ft | 449 kts | 108° |
| 2026-04-21 12:20 | -0.45128 | 34.02952 | 36865 ft | 449 kts | 104° |
| 2026-04-21 12:20 | -0.46729 | 34.08983 | 36855 ft | 449 kts | 104° |
| 2026-04-21 12:21 | -0.48349 | 34.15000 | 36856 ft | 449 kts | 105° |
| 2026-04-21 12:21 | -0.49998 | 34.21011 | 36853 ft | 449 kts | 105° |
| 2026-04-21 12:22 | -0.51656 | 34.27024 | 36850 ft | 449 kts | 105° |
| 2026-04-21 12:22 | -0.53315 | 34.33040 | 36848 ft | 449 kts | 105° |
| 2026-04-21 12:23 | -0.54971 | 34.39048 | 36854 ft | 449 kts | 105° |
| 2026-04-21 12:23 | -0.56626 | 34.45056 | 36851 ft | 448 kts | 105° |
| 2026-04-21 12:24 | -0.58281 | 34.51068 | 36857 ft | 448 kts | 105° |
| 2026-04-21 12:24 | -0.59934 | 34.57068 | 36865 ft | 448 kts | 104° |
| 2026-04-21 12:25 | -0.61645 | 34.63051 | 36870 ft | 448 kts | 106° |
| 2026-04-21 12:25 | -0.63439 | 34.69015 | 36888 ft | 448 kts | 106° |
| 2026-04-21 12:26 | -0.65230 | 34.74971 | 36894 ft | 448 kts | 106° |
| 2026-04-21 12:26 | -0.67008 | 34.80927 | 36909 ft | 447 kts | 106° |
| 2026-04-21 12:27 | -0.68782 | 34.86886 | 36923 ft | 447 kts | 106° |
| 2026-04-21 12:27 | -0.70554 | 34.92842 | 36931 ft | 447 kts | 106° |
| 2026-04-21 12:28 | -0.72326 | 34.98798 | 36942 ft | 447 kts | 106° |
| 2026-04-21 12:28 | -0.74097 | 35.04752 | 36829 ft | 449 kts | 106° |
| 2026-04-21 12:28 | -0.74979 | 35.07716 | 36512 ft | 448 kts | 106° |
| 2026-04-21 12:29 | -0.75860 | 35.10677 | 36116 ft | 442 kts | 106° |
| 2026-04-21 12:29 | -0.76734 | 35.13611 | 35739 ft | 438 kts | 106° |
| 2026-04-21 12:29 | -0.77597 | 35.16512 | 35339 ft | 434 kts | 105° |
| 2026-04-21 12:29 | -0.78453 | 35.19392 | 34947 ft | 431 kts | 106° |
| 2026-04-21 12:30 | -0.79302 | 35.22245 | 34546 ft | 428 kts | 106° |
| 2026-04-21 12:30 | -0.80147 | 35.25088 | 34142 ft | 425 kts | 106° |
| 2026-04-21 12:30 | -0.80987 | 35.27914 | 33701 ft | 423 kts | 106° |
| 2026-04-21 12:30 | -0.81821 | 35.30716 | 33294 ft | 420 kts | 106° |
| 2026-04-21 12:31 | -0.82652 | 35.33507 | 32887 ft | 416 kts | 106° |
| 2026-04-21 12:31 | -0.83665 | 35.36199 | 32486 ft | 413 kts | 115° |
| 2026-04-21 12:31 | -0.85062 | 35.38683 | 32212 ft | 408 kts | 124° |
| 2026-04-21 12:31 | -0.86753 | 35.40943 | 31857 ft | 404 kts | 127° |
| 2026-04-21 12:32 | -0.88481 | 35.43145 | 31495 ft | 401 kts | 127° |
| 2026-04-21 12:32 | -0.90209 | 35.45325 | 31128 ft | 399 kts | 127° |
| 2026-04-21 12:32 | -0.91924 | 35.47492 | 30770 ft | 396 kts | 127° |
| 2026-04-21 12:32 | -0.93621 | 35.49651 | 30402 ft | 393 kts | 127° |
| 2026-04-21 12:33 | -0.95302 | 35.51801 | 30017 ft | 391 kts | 126° |
| 2026-04-21 12:33 | -0.96961 | 35.53933 | 29593 ft | 389 kts | 126° |
| 2026-04-21 12:33 | -0.98617 | 35.56064 | 29197 ft | 385 kts | 126° |
| 2026-04-21 12:33 | -1.00249 | 35.58169 | 28800 ft | 382 kts | 126° |
| 2026-04-21 12:34 | -1.01868 | 35.60257 | 28420 ft | 378 kts | 126° |
| 2026-04-21 12:34 | -1.03471 | 35.62325 | 28053 ft | 375 kts | 126° |
| 2026-04-21 12:34 | -1.05065 | 35.64382 | 27573 ft | 375 kts | 126° |
| 2026-04-21 12:34 | -1.06662 | 35.66443 | 27119 ft | 375 kts | 126° |
| 2026-04-21 12:35 | -1.08254 | 35.68498 | 26670 ft | 374 kts | 126° |
| 2026-04-21 12:35 | -1.09845 | 35.70550 | 26229 ft | 373 kts | 126° |
| 2026-04-21 12:35 | -1.11429 | 35.72595 | 25805 ft | 372 kts | 126° |
| 2026-04-21 12:35 | -1.13011 | 35.74636 | 25369 ft | 371 kts | 126° |
| 2026-04-21 12:36 | -1.14593 | 35.76678 | 24951 ft | 370 kts | 126° |
| 2026-04-21 12:36 | -1.16147 | 35.78684 | 24540 ft | 369 kts | 126° |
| 2026-04-21 12:36 | -1.17716 | 35.80709 | 24157 ft | 368 kts | 126° |
| 2026-04-21 12:36 | -1.19279 | 35.82726 | 23769 ft | 366 kts | 126° |
| 2026-04-21 12:37 | -1.20837 | 35.84736 | 23331 ft | 365 kts | 126° |
| 2026-04-21 12:37 | -1.21885 | 35.86089 | 23015 ft | 364 kts | 126° |
| 2026-04-21 12:37 | -1.23928 | 35.88725 | 22433 ft | 361 kts | 126° |
| 2026-04-21 12:37 | -1.24966 | 35.90065 | 22154 ft | 360 kts | 126° |
| 2026-04-21 12:38 | -1.26493 | 35.92037 | 21735 ft | 358 kts | 126° |
| 2026-04-21 12:38 | -1.28505 | 35.94633 | 21186 ft | 356 kts | 126° |
| 2026-04-21 12:38 | -1.29526 | 35.95951 | 20911 ft | 354 kts | 126° |
| 2026-04-21 12:38 | -1.31030 | 35.97893 | 20517 ft | 353 kts | 126° |
| 2026-04-21 12:39 | -1.32528 | 35.99826 | 20118 ft | 351 kts | 126° |
| 2026-04-21 12:39 | -1.34021 | 36.01754 | 19717 ft | 350 kts | 126° |
| 2026-04-21 12:39 | -1.35508 | 36.03673 | 19340 ft | 348 kts | 126° |
| 2026-04-21 12:39 | -1.36965 | 36.05555 | 19003 ft | 345 kts | 126° |
| 2026-04-21 12:40 | -1.38430 | 36.07447 | 18666 ft | 343 kts | 126° |
| 2026-04-21 12:40 | -1.39883 | 36.09322 | 18330 ft | 340 kts | 126° |
| 2026-04-21 12:40 | -1.41327 | 36.11186 | 17955 ft | 337 kts | 126° |
| 2026-04-21 12:40 | -1.42731 | 36.13049 | 17562 ft | 334 kts | 120° |
| 2026-04-21 12:41 | -1.43726 | 36.15122 | 17191 ft | 329 kts | 110° |
| 2026-04-21 12:41 | -1.44561 | 36.17239 | 16819 ft | 327 kts | 109° |
| 2026-04-21 12:41 | -1.45373 | 36.19351 | 16436 ft | 324 kts | 109° |
| 2026-04-21 12:41 | -1.46180 | 36.21445 | 16082 ft | 322 kts | 110° |
| 2026-04-21 12:42 | -1.46991 | 36.23528 | 15720 ft | 321 kts | 110° |
| 2026-04-21 12:42 | -1.47804 | 36.25598 | 15369 ft | 319 kts | 110° |
| 2026-04-21 12:42 | -1.48616 | 36.27651 | 15022 ft | 317 kts | 110° |
| 2026-04-21 12:42 | -1.49426 | 36.29693 | 14670 ft | 316 kts | 110° |
| 2026-04-21 12:43 | -1.50234 | 36.31723 | 14331 ft | 314 kts | 110° |
| 2026-04-21 12:43 | -1.51039 | 36.33747 | 13990 ft | 312 kts | 110° |
| 2026-04-21 12:43 | -1.51839 | 36.35754 | 13628 ft | 310 kts | 110° |
| 2026-04-21 12:43 | -1.52634 | 36.37748 | 13263 ft | 308 kts | 110° |
| 2026-04-21 12:44 | -1.53426 | 36.39735 | 12878 ft | 307 kts | 110° |
| 2026-04-21 12:44 | -1.54212 | 36.41708 | 12518 ft | 305 kts | 111° |
| 2026-04-21 12:44 | -1.54996 | 36.43675 | 12153 ft | 304 kts | 111° |
| 2026-04-21 12:44 | -1.55776 | 36.45632 | 11805 ft | 303 kts | 111° |
| 2026-04-21 12:45 | -1.56553 | 36.47582 | 11433 ft | 302 kts | 111° |
| 2026-04-21 12:45 | -1.57328 | 36.49526 | 11127 ft | 299 kts | 111° |
| 2026-04-21 12:45 | -1.58083 | 36.51419 | 11069 ft | 287 kts | 111° |
| 2026-04-21 12:45 | -1.58772 | 36.53246 | 11033 ft | 275 kts | 103° |
| 2026-04-21 12:46 | -1.58830 | 36.55109 | 10891 ft | 267 kts | 79° |
| 2026-04-21 12:46 | -1.58208 | 36.56820 | 10760 ft | 260 kts | 59° |
| 2026-04-21 12:46 | -1.57186 | 36.58300 | 10666 ft | 258 kts | 55° |
| 2026-04-21 12:46 | -1.56119 | 36.59725 | 10541 ft | 255 kts | 54° |
| 2026-04-21 12:47 | -1.55024 | 36.61108 | 10412 ft | 252 kts | 53° |
| 2026-04-21 12:47 | -1.54034 | 36.62391 | 10306 ft | 250 kts | 55° |
| 2026-04-21 12:47 | -1.53003 | 36.63775 | 10191 ft | 246 kts | 56° |
| 2026-04-21 12:47 | -1.51992 | 36.65157 | 10037 ft | 247 kts | 56° |
| 2026-04-21 12:48 | -1.50991 | 36.66533 | 9859 ft | 249 kts | 56° |
| 2026-04-21 12:48 | -1.49956 | 36.67958 | 9716 ft | 251 kts | 56° |
| 2026-04-21 12:48 | -1.48944 | 36.69352 | 9598 ft | 250 kts | 56° |
| 2026-04-21 12:48 | -1.47935 | 36.70740 | 9520 ft | 245 kts | 56° |
| 2026-04-21 12:49 | -1.46945 | 36.72104 | 9520 ft | 239 kts | 56° |
| 2026-04-21 12:49 | -1.45970 | 36.73446 | 9512 ft | 240 kts | 56° |
| 2026-04-21 12:49 | -1.44979 | 36.74811 | 9317 ft | 245 kts | 56° |
| 2026-04-21 12:49 | -1.43975 | 36.76193 | 9029 ft | 245 kts | 55° |
| 2026-04-21 12:50 | -1.42983 | 36.77559 | 8721 ft | 241 kts | 56° |
| 2026-04-21 12:50 | -1.42008 | 36.78900 | 8413 ft | 235 kts | 56° |
| 2026-04-21 12:50 | -1.41062 | 36.80202 | 8106 ft | 228 kts | 56° |
| 2026-04-21 12:50 | -1.40146 | 36.81464 | 7819 ft | 220 kts | 56° |
| 2026-04-21 12:51 | -1.39260 | 36.82683 | 7542 ft | 213 kts | 55° |
| 2026-04-21 12:51 | -1.38408 | 36.83856 | 7281 ft | 203 kts | 57° |
| 2026-04-21 12:51 | -1.37611 | 36.84954 | 7046 ft | 188 kts | 56° |
| 2026-04-21 12:51 | -1.36883 | 36.85956 | 6869 ft | 169 kts | 55° |
| 2026-04-21 12:52 | -1.36222 | 36.86865 | 6648 ft | 157 kts | 58° |
| 2026-04-21 12:52 | -1.35582 | 36.87750 | 6363 ft | 156 kts | 55° |
| 2026-04-21 12:52 | -1.34920 | 36.88640 | 6096 ft | 163 kts | 54° |
| 2026-04-21 12:52 | -1.34266 | 36.89546 | 5933 ft | 163 kts | 54° |
| 2026-04-21 12:53 | -1.33618 | 36.90464 | 5670 ft | 160 kts | 55° |
| 2026-04-21 12:53 | -1.32986 | 36.91318 | 5450 ft | 150 kts | 53° |
| 2026-04-21 12:53 | -1.32383 | 36.92138 | 5316 ft | 139 kts | 56° |
| 2026-04-21 12:53 | -1.31904 | 36.92805 | 5314 ft | 96 kts | 53° |
| 2026-04-21 12:54 | -1.31640 | 36.93166 | 5306 ft | 35 kts | 53° |
| 2026-04-21 12:54 | -1.31566 | 36.93295 | 5307 ft | 16 kts | 88° |
| 2026-04-21 12:54 | -1.31629 | 36.93373 | 5307 ft | 15 kts | 143° |
| 2026-04-21 12:54 | -1.31711 | 36.93433 | 5302 ft | 14 kts | 144° |
| 2026-04-21 12:55 | -1.31793 | 36.93481 | 5307 ft | 14 kts | 177° |
| 2026-04-21 12:55 | -1.31860 | 36.93423 | 5306 ft | 13 kts | 233° |
| 2026-04-21 12:55 | -1.31915 | 36.93348 | 5310 ft | 13 kts | 234° |
| 2026-04-21 12:55 | -1.31969 | 36.93275 | 5309 ft | 13 kts | 233° |
| 2026-04-21 12:56 | -1.32027 | 36.93196 | 5313 ft | 16 kts | 234° |
| 2026-04-21 12:56 | -1.32096 | 36.93101 | 5316 ft | 17 kts | 233° |
| 2026-04-21 12:56 | -1.32170 | 36.92999 | 5320 ft | 19 kts | 234° |
| 2026-04-21 12:56 | -1.32254 | 36.92884 | 5321 ft | 21 kts | 234° |
| 2026-04-21 12:57 | -1.32340 | 36.92767 | 5323 ft | 21 kts | 233° |
| 2026-04-21 12:57 | -1.32423 | 36.92653 | 5321 ft | 20 kts | 234° |
| 2026-04-21 12:57 | -1.32505 | 36.92543 | 5323 ft | 19 kts | 234° |
| 2026-04-21 12:57 | -1.32583 | 36.92435 | 5322 ft | 19 kts | 234° |
| 2026-04-21 12:58 | -1.32666 | 36.92351 | 5319 ft | 16 kts | 188° |
| 2026-04-21 12:58 | -1.32756 | 36.92390 | 5317 ft | 14 kts | 175° |
| 2026-04-21 12:58 | -1.32820 | 36.92333 | 5323 ft | 13 kts | 234° |
| 2026-04-21 12:58 | -1.32884 | 36.92271 | 5319 ft | 13 kts | 216° |
| 2026-04-21 12:59 | -1.32961 | 36.92231 | 5322 ft | 12 kts | 198° |
| 2026-04-21 12:59 | -1.33044 | 36.92217 | 5316 ft | 12 kts | 180° |
| 2026-04-21 12:59 | -1.33125 | 36.92226 | 5323 ft | 10 kts | 166° |
| 2026-04-21 12:59 | -1.33190 | 36.92253 | 5318 ft | 10 kts | 151° |
| 2026-04-21 13:00 | -1.33242 | 36.92276 | 5323 ft | 8 kts | 172° |
| 2026-04-21 13:00 | -1.33267 | 36.92278 | 5316 ft | 0 kts | 174° |
| 2026-04-21 13:00 | -1.33287 | 36.92280 | 5318 ft | 5 kts | 175° |
| 2026-04-21 13:01 | -1.33325 | 36.92283 | 5323 ft | 6 kts | 174° |
| 2026-04-21 13:01 | -1.33337 | 36.92313 | 5323 ft | 5 kts | 73° |
| 2026-04-21 13:01 | -1.33327 | 36.92340 | 5319 ft | 1 kts | 70° |
| 2026-04-21 13:01 | -1.33323 | 36.92351 | 5322 ft | 3 kts | 70° |
| 2026-04-21 13:02 | -1.33321 | 36.92357 | 5318 ft | 0 kts | 70° |